sensor_id;sensor_type;location;lat;lon;timestamp;P1;P2;P0
34240;PMS7003;20503;50.200;19.508;2022-10-31T00:04:19;7;2;1
34240;PMS7003;20503;50.200;19.508;2022-10-31T00:09:29;5;5;2
34240;PMS7003;20503;50.200;19.508;2022-10-31T00:14:40;4;3;3
34240;PMS7003;20503;50.200;19.508;2022-10-31T00:19:51;4;4;3
34240;PMS7003;20503;50.200;19.508;2022-10-31T00:25:02;4;4;3
34240;PMS7003;20503;50.200;19.508;2022-10-31T00:30:13;6;2;1
34240;PMS7003;20503;50.200;19.508;2022-10-31T00:35:23;2;2;1
34240;PMS7003;20503;50.200;19.508;2022-10-31T00:40:34;5;3;1
34240;PMS7003;20503;50.200;19.508;2022-10-31T00:45:45;4;3;3
34240;PMS7003;20503;50.200;19.508;2022-10-31T00:50:55;7;5;3
34240;PMS7003;20503;50.200;19.508;2022-10-31T00:56:06;6;3;2
34240;PMS7003;20503;50.200;19.508;2022-10-31T01:01:17;7;4;3
34240;PMS7003;20503;50.200;19.508;2022-10-31T01:06:28;3;2;1
34240;PMS7003;20503;50.200;19.508;2022-10-31T01:11:39;3;3;2
34240;PMS7003;20503;50.200;19.508;2022-10-31T01:16:49;7;4;2
34240;PMS7003;20503;50.200;19.508;2022-10-31T01:22:00;2;2;1
34240;PMS7003;20503;50.200;19.508;2022-10-31T01:27:11;5;4;2
34240;PMS7003;20503;50.200;19.508;2022-10-31T01:32:21;6;5;3
34240;PMS7003;20503;50.200;19.508;2022-10-31T01:37:32;4;3;2
34240;PMS7003;20503;50.200;19.508;2022-10-31T01:42:43;7;3;2
34240;PMS7003;20503;50.200;19.508;2022-10-31T01:47:54;7;5;4
34240;PMS7003;20503;50.200;19.508;2022-10-31T01:53:05;10;5;4
34240;PMS7003;20503;50.200;19.508;2022-10-31T01:58:17;12;8;6
34240;PMS7003;20503;50.200;19.508;2022-10-31T02:03:26;4;3;2
34240;PMS7003;20503;50.200;19.508;2022-10-31T02:08:37;6;4;3
34240;PMS7003;20503;50.200;19.508;2022-10-31T02:13:47;4;2;1
34240;PMS7003;20503;50.200;19.508;2022-10-31T02:18:58;7;3;2
34240;PMS7003;20503;50.200;19.508;2022-10-31T02:34:37;4;3;3
34240;PMS7003;20503;50.200;19.508;2022-10-31T02:45:00;6;2;2
34240;PMS7003;20503;50.200;19.508;2022-10-31T02:50:15;6;5;4
34240;PMS7003;20503;50.200;19.508;2022-10-31T03:00:49;8;4;3
34240;PMS7003;20503;50.200;19.508;2022-10-31T03:11:07;4;2;2
34240;PMS7003;20503;50.200;19.508;2022-10-31T03:21:23;5;5;3
34240;PMS7003;20503;50.200;19.508;2022-10-31T03:26:31;6;5;3
34240;PMS7003;20503;50.200;19.508;2022-10-31T03:31:38;5;5;4
34240;PMS7003;20503;50.200;19.508;2022-10-31T03:36:44;9;5;4
34240;PMS7003;20503;50.200;19.508;2022-10-31T03:41:54;7;5;4
34240;PMS7003;20503;50.200;19.508;2022-10-31T03:47:03;4;4;3
34240;PMS7003;20503;50.200;19.508;2022-10-31T03:57:34;9;3;2
34240;PMS7003;20503;50.200;19.508;2022-10-31T04:02:38;15;7;1
34240;PMS7003;20503;50.200;19.508;2022-10-31T04:07:45;3;2;2
34240;PMS7003;20503;50.200;19.508;2022-10-31T04:12:59;3;3;2
34240;PMS7003;20503;50.200;19.508;2022-10-31T04:18:05;5;5;4
34240;PMS7003;20503;50.200;19.508;2022-10-31T04:23:20;7;3;2
34240;PMS7003;20503;50.200;19.508;2022-10-31T04:28:27;11;8;6
34240;PMS7003;20503;50.200;19.508;2022-10-31T04:33:38;3;2;1
34240;PMS7003;20503;50.200;19.508;2022-10-31T04:38:48;3;3;2
34240;PMS7003;20503;50.200;19.508;2022-10-31T04:43:59;7;5;3
34240;PMS7003;20503;50.200;19.508;2022-10-31T04:49:10;9;5;4
34240;PMS7003;20503;50.200;19.508;2022-10-31T04:54:21;7;5;4
34240;PMS7003;20503;50.200;19.508;2022-10-31T04:59:31;4;4;3
34240;PMS7003;20503;50.200;19.508;2022-10-31T05:04:42;7;5;4
34240;PMS7003;20503;50.200;19.508;2022-10-31T05:09:53;16;12;5
34240;PMS7003;20503;50.200;19.508;2022-10-31T05:15:04;8;6;4
34240;PMS7003;20503;50.200;19.508;2022-10-31T05:20:15;5;3;3
34240;PMS7003;20503;50.200;19.508;2022-10-31T05:25:26;10;8;5
34240;PMS7003;20503;50.200;19.508;2022-10-31T05:30:36;9;8;5
34240;PMS7003;20503;50.200;19.508;2022-10-31T05:35:47;9;8;5
34240;PMS7003;20503;50.200;19.508;2022-10-31T05:40:57;18;11;5
34240;PMS7003;20503;50.200;19.508;2022-10-31T05:46:08;7;5;3
34240;PMS7003;20503;50.200;19.508;2022-10-31T05:51:19;8;6;3
34240;PMS7003;20503;50.200;19.508;2022-10-31T05:56:30;6;6;3
34240;PMS7003;20503;50.200;19.508;2022-10-31T06:01:40;6;3;1
34240;PMS7003;20503;50.200;19.508;2022-10-31T06:06:51;8;6;5
34240;PMS7003;20503;50.200;19.508;2022-10-31T06:12:02;3;3;3
34240;PMS7003;20503;50.200;19.508;2022-10-31T06:17:13;4;2;1
34240;PMS7003;20503;50.200;19.508;2022-10-31T06:22:24;6;6;3
34240;PMS7003;20503;50.200;19.508;2022-10-31T06:27:34;6;4;2
34240;PMS7003;20503;50.200;19.508;2022-10-31T06:32:45;5;5;4
34240;PMS7003;20503;50.200;19.508;2022-10-31T06:37:56;3;3;2
34240;PMS7003;20503;50.200;19.508;2022-10-31T06:43:06;5;3;2
34240;PMS7003;20503;50.200;19.508;2022-10-31T06:48:17;9;7;4
34240;PMS7003;20503;50.200;19.508;2022-10-31T06:53:28;4;2;2
34240;PMS7003;20503;50.200;19.508;2022-10-31T06:58:39;2;2;1
34240;PMS7003;20503;50.200;19.508;2022-10-31T07:03:50;5;4;3
34240;PMS7003;20503;50.200;19.508;2022-10-31T07:09:00;4;4;3
34240;PMS7003;20503;50.200;19.508;2022-10-31T07:14:11;8;3;3
34240;PMS7003;20503;50.200;19.508;2022-10-31T07:19:22;4;3;2
34240;PMS7003;20503;50.200;19.508;2022-10-31T07:24:32;10;7;4
34240;PMS7003;20503;50.200;19.508;2022-10-31T07:29:43;7;6;3
34240;PMS7003;20503;50.200;19.508;2022-10-31T07:34:54;6;6;4
34240;PMS7003;20503;50.200;19.508;2022-10-31T07:45:17;14;7;6
34240;PMS7003;20503;50.200;19.508;2022-10-31T07:50:27;10;7;5
34240;PMS7003;20503;50.200;19.508;2022-10-31T07:55:37;12;9;6
34240;PMS7003;20503;50.200;19.508;2022-10-31T08:00:48;8;5;3
34240;PMS7003;20503;50.200;19.508;2022-10-31T08:05:58;7;7;6
34240;PMS7003;20503;50.200;19.508;2022-10-31T08:11:09;7;7;4
34240;PMS7003;20503;50.200;19.508;2022-10-31T08:16:20;7;5;4
34240;PMS7003;20503;50.200;19.508;2022-10-31T08:21:31;8;6;4
34240;PMS7003;20503;50.200;19.508;2022-10-31T08:26:41;8;7;5
34240;PMS7003;20503;50.200;19.508;2022-10-31T08:31:52;11;4;3
34240;PMS7003;20503;50.200;19.508;2022-10-31T08:37:07;7;4;3
34240;PMS7003;20503;50.200;19.508;2022-10-31T08:42:14;12;10;7
34240;PMS7003;20503;50.200;19.508;2022-10-31T08:47:24;6;4;4
34240;PMS7003;20503;50.200;19.508;2022-10-31T08:52:35;5;5;3
34240;PMS7003;20503;50.200;19.508;2022-10-31T08:57:46;11;6;5
34240;PMS7003;20503;50.200;19.508;2022-10-31T09:02:57;10;5;2
34240;PMS7003;20503;50.200;19.508;2022-10-31T09:08:07;2;0;0
34240;PMS7003;20503;50.200;19.508;2022-10-31T09:13:19;5;5;4
34240;PMS7003;20503;50.200;19.508;2022-10-31T09:18:29;10;6;6
34240;PMS7003;20503;50.200;19.508;2022-10-31T09:23:39;12;3;2
34240;PMS7003;20503;50.200;19.508;2022-10-31T09:28:50;5;5;4
34240;PMS7003;20503;50.200;19.508;2022-10-31T09:34:01;3;2;2
34240;PMS7003;20503;50.200;19.508;2022-10-31T09:39:11;15;7;5
34240;PMS7003;20503;50.200;19.508;2022-10-31T09:49:48;11;5;3
34240;PMS7003;20503;50.200;19.508;2022-10-31T09:54:52;7;5;4
34240;PMS7003;20503;50.200;19.508;2022-10-31T09:59:59;8;8;5
34240;PMS7003;20503;50.200;19.508;2022-10-31T10:05:13;6;4;3
34240;PMS7003;20503;50.200;19.508;2022-10-31T10:15:36;10;10;7
34240;PMS7003;20503;50.200;19.508;2022-10-31T10:26:15;12;11;7
34240;PMS7003;20503;50.200;19.508;2022-10-31T10:31:13;12;11;7
34240;PMS7003;20503;50.200;19.508;2022-10-31T10:36:21;10;4;3
34240;PMS7003;20503;50.200;19.508;2022-10-31T10:41:31;7;7;6
34240;PMS7003;20503;50.200;19.508;2022-10-31T11:02:30;12;7;6
34240;PMS7003;20503;50.200;19.508;2022-10-31T11:12:41;5;4;3
34240;PMS7003;20503;50.200;19.508;2022-10-31T11:17:46;6;5;3
34240;PMS7003;20503;50.200;19.508;2022-10-31T11:22:55;13;9;6
34240;PMS7003;20503;50.200;19.508;2022-10-31T11:28:03;7;7;6
34240;PMS7003;20503;50.200;19.508;2022-10-31T11:38:19;10;7;6
34240;PMS7003;20503;50.200;19.508;2022-10-31T11:43:29;8;8;4
34240;PMS7003;20503;50.200;19.508;2022-10-31T11:48:39;8;6;5
34240;PMS7003;20503;50.200;19.508;2022-10-31T11:53:52;8;7;6
34240;PMS7003;20503;50.200;19.508;2022-10-31T11:59:02;10;10;7
34240;PMS7003;20503;50.200;19.508;2022-10-31T12:04:12;10;5;4
34240;PMS7003;20503;50.200;19.508;2022-10-31T12:09:23;6;5;4
34240;PMS7003;20503;50.200;19.508;2022-10-31T12:14:36;7;7;6
34240;PMS7003;20503;50.200;19.508;2022-10-31T12:19:50;10;8;5
34240;PMS7003;20503;50.200;19.508;2022-10-31T12:25:03;11;7;5
34240;PMS7003;20503;50.200;19.508;2022-10-31T12:30:19;7;6;5
34240;PMS7003;20503;50.200;19.508;2022-10-31T12:45:54;10;9;6
34240;PMS7003;20503;50.200;19.508;2022-10-31T13:06:51;4;4;2
34240;PMS7003;20503;50.200;19.508;2022-10-31T13:11:55;12;8;6
34240;PMS7003;20503;50.200;19.508;2022-10-31T13:17:01;8;6;5
34240;PMS7003;20503;50.200;19.508;2022-10-31T13:22:08;2;1;1
34240;PMS7003;20503;50.200;19.508;2022-10-31T13:27:15;8;5;4
34240;PMS7003;20503;50.200;19.508;2022-10-31T13:32:23;3;3;2
34240;PMS7003;20503;50.200;19.508;2022-10-31T13:53:11;5;5;4
34240;PMS7003;20503;50.200;19.508;2022-10-31T13:58:27;6;6;5
34240;PMS7003;20503;50.200;19.508;2022-10-31T14:03:29;6;5;5
34240;PMS7003;20503;50.200;19.508;2022-10-31T14:08:33;11;7;5
34240;PMS7003;20503;50.200;19.508;2022-10-31T14:13:42;4;4;2
34240;PMS7003;20503;50.200;19.508;2022-10-31T14:24:13;8;2;1
34240;PMS7003;20503;50.200;19.508;2022-10-31T14:34:29;1;1;1
34240;PMS7003;20503;50.200;19.508;2022-10-31T14:55:13;1;1;1
34240;PMS7003;20503;50.200;19.508;2022-10-31T15:00:18;3;3;3
34240;PMS7003;20503;50.200;19.508;2022-10-31T15:05:27;4;3;3
34240;PMS7003;20503;50.200;19.508;2022-10-31T15:10:38;4;2;1
34240;PMS7003;20503;50.200;19.508;2022-10-31T15:15:52;5;4;3
34240;PMS7003;20503;50.200;19.508;2022-10-31T15:20:59;3;2;1
34240;PMS7003;20503;50.200;19.508;2022-10-31T15:26:29;6;4;3
34240;PMS7003;20503;50.200;19.508;2022-10-31T15:31:22;8;4;3
34240;PMS7003;20503;50.200;19.508;2022-10-31T15:36:31;6;6;4
34240;PMS7003;20503;50.200;19.508;2022-10-31T15:47:04;3;3;3
34240;PMS7003;20503;50.200;19.508;2022-10-31T15:57:19;7;5;3
34240;PMS7003;20503;50.200;19.508;2022-10-31T16:02:26;10;7;5
34240;PMS7003;20503;50.200;19.508;2022-10-31T16:07:36;9;6;4
34240;PMS7003;20503;50.200;19.508;2022-10-31T16:12:46;7;6;4
34240;PMS7003;20503;50.200;19.508;2022-10-31T16:17:57;20;16;10
34240;PMS7003;20503;50.200;19.508;2022-10-31T16:23:11;29;22;14
34240;PMS7003;20503;50.200;19.508;2022-10-31T16:28:20;6;6;6
34240;PMS7003;20503;50.200;19.508;2022-10-31T16:33:31;21;13;9
34240;PMS7003;20503;50.200;19.508;2022-10-31T16:38:40;23;19;10
34240;PMS7003;20503;50.200;19.508;2022-10-31T16:43:51;30;24;15
34240;PMS7003;20503;50.200;19.508;2022-10-31T16:49:02;15;11;9
34240;PMS7003;20503;50.200;19.508;2022-10-31T16:54:13;23;19;14
34240;PMS7003;20503;50.200;19.508;2022-10-31T16:59:23;18;15;11
34240;PMS7003;20503;50.200;19.508;2022-10-31T17:04:34;16;11;10
34240;PMS7003;20503;50.200;19.508;2022-10-31T17:09:45;15;13;9
34240;PMS7003;20503;50.200;19.508;2022-10-31T17:14:55;15;11;9
34240;PMS7003;20503;50.200;19.508;2022-10-31T17:25:18;19;9;6
34240;PMS7003;20503;50.200;19.508;2022-10-31T17:30:28;17;14;10
34240;PMS7003;20503;50.200;19.508;2022-10-31T17:35:39;23;19;13
34240;PMS7003;20503;50.200;19.508;2022-10-31T17:40:49;19;13;9
34240;PMS7003;20503;50.200;19.508;2022-10-31T17:46:00;26;16;11
34240;PMS7003;20503;50.200;19.508;2022-10-31T17:51:11;16;14;10
34240;PMS7003;20503;50.200;19.508;2022-10-31T17:56:21;15;11;8
34240;PMS7003;20503;50.200;19.508;2022-10-31T18:01:32;24;21;12
34240;PMS7003;20503;50.200;19.508;2022-10-31T18:06:43;20;17;10
34240;PMS7003;20503;50.200;19.508;2022-10-31T18:11:54;29;19;14
34240;PMS7003;20503;50.200;19.508;2022-10-31T18:17:05;27;21;14
34240;PMS7003;20503;50.200;19.508;2022-10-31T18:22:15;22;20;13
34240;PMS7003;20503;50.200;19.508;2022-10-31T18:27:26;19;14;8
34240;PMS7003;20503;50.200;19.508;2022-10-31T18:32:37;35;25;16
34240;PMS7003;20503;50.200;19.508;2022-10-31T18:37:48;32;24;14
34240;PMS7003;20503;50.200;19.508;2022-10-31T18:42:58;11;7;2
34240;PMS7003;20503;50.200;19.508;2022-10-31T18:48:11;15;12;8
34240;PMS7003;20503;50.200;19.508;2022-10-31T18:53:20;10;5;0
34240;PMS7003;20503;50.200;19.508;2022-10-31T18:58:31;18;15;10
34240;PMS7003;20503;50.200;19.508;2022-10-31T19:03:41;29;23;15
34240;PMS7003;20503;50.200;19.508;2022-10-31T19:14:03;32;25;16
34240;PMS7003;20503;50.200;19.508;2022-10-31T19:19:14;34;26;17
34240;PMS7003;20503;50.200;19.508;2022-10-31T19:24:24;26;15;10
34240;PMS7003;20503;50.200;19.508;2022-10-31T19:29:35;31;21;13
34240;PMS7003;20503;50.200;19.508;2022-10-31T19:34:46;24;19;13
34240;PMS7003;20503;50.200;19.508;2022-10-31T19:39:57;29;24;15
34240;PMS7003;20503;50.200;19.508;2022-10-31T19:45:08;28;19;12
34240;PMS7003;20503;50.200;19.508;2022-10-31T19:50:18;24;17;13
34240;PMS7003;20503;50.200;19.508;2022-10-31T19:55:29;23;17;11
34240;PMS7003;20503;50.200;19.508;2022-10-31T20:00:40;21;20;13
34240;PMS7003;20503;50.200;19.508;2022-10-31T20:05:51;25;17;10
34240;PMS7003;20503;50.200;19.508;2022-10-31T20:11:02;14;12;9
34240;PMS7003;20503;50.200;19.508;2022-10-31T20:16:13;14;10;6
34240;PMS7003;20503;50.200;19.508;2022-10-31T20:21:24;20;13;8
34240;PMS7003;20503;50.200;19.508;2022-10-31T20:26:34;19;10;5
34240;PMS7003;20503;50.200;19.508;2022-10-31T20:31:45;13;11;7
34240;PMS7003;20503;50.200;19.508;2022-10-31T20:36:55;20;15;10
34240;PMS7003;20503;50.200;19.508;2022-10-31T20:42:06;22;16;11
34240;PMS7003;20503;50.200;19.508;2022-10-31T20:47:16;30;21;15
34240;PMS7003;20503;50.200;19.508;2022-10-31T20:52:27;14;12;8
34240;PMS7003;20503;50.200;19.508;2022-10-31T20:57:38;19;17;12
34240;PMS7003;20503;50.200;19.508;2022-10-31T21:02:49;21;13;7
34240;PMS7003;20503;50.200;19.508;2022-10-31T21:08:00;10;9;6
34240;PMS7003;20503;50.200;19.508;2022-10-31T21:13:10;17;15;11
34240;PMS7003;20503;50.200;19.508;2022-10-31T21:18:21;15;10;8
34240;PMS7003;20503;50.200;19.508;2022-10-31T21:23:32;3;3;2
34240;PMS7003;20503;50.200;19.508;2022-10-31T21:28:43;5;5;4
34240;PMS7003;20503;50.200;19.508;2022-10-31T21:33:53;11;8;5
34240;PMS7003;20503;50.200;19.508;2022-10-31T21:39:05;7;6;4
34240;PMS7003;20503;50.200;19.508;2022-10-31T21:44:15;10;7;5
34240;PMS7003;20503;50.200;19.508;2022-10-31T21:49:26;7;5;4
34240;PMS7003;20503;50.200;19.508;2022-10-31T21:54:36;10;7;5
34240;PMS7003;20503;50.200;19.508;2022-10-31T21:59:47;4;4;3
34240;PMS7003;20503;50.200;19.508;2022-10-31T22:04:58;6;5;4
34240;PMS7003;20503;50.200;19.508;2022-10-31T22:10:10;6;6;5
34240;PMS7003;20503;50.200;19.508;2022-10-31T22:15:19;7;6;5
34240;PMS7003;20503;50.200;19.508;2022-10-31T22:20:30;5;4;3
34240;PMS7003;20503;50.200;19.508;2022-10-31T22:25:41;5;5;4
34240;PMS7003;20503;50.200;19.508;2022-10-31T22:30:52;2;2;1
34240;PMS7003;20503;50.200;19.508;2022-10-31T22:36:03;5;4;2
34240;PMS7003;20503;50.200;19.508;2022-10-31T22:46:25;2;2;2
34240;PMS7003;20503;50.200;19.508;2022-10-31T22:51:36;6;4;2
34240;PMS7003;20503;50.200;19.508;2022-10-31T22:57:01;7;4;3
34240;PMS7003;20503;50.200;19.508;2022-10-31T23:02:12;9;5;4
34240;PMS7003;20503;50.200;19.508;2022-10-31T23:07:22;8;6;5
34240;PMS7003;20503;50.200;19.508;2022-10-31T23:12:33;5;5;4
34240;PMS7003;20503;50.200;19.508;2022-10-31T23:17:46;8;6;4
34240;PMS7003;20503;50.200;19.508;2022-10-31T23:22:55;6;5;4
34240;PMS7003;20503;50.200;19.508;2022-10-31T23:28:05;7;5;4
34240;PMS7003;20503;50.200;19.508;2022-10-31T23:33:16;19;11;8
34240;PMS7003;20503;50.200;19.508;2022-10-31T23:38:27;9;7;4
34240;PMS7003;20503;50.200;19.508;2022-10-31T23:43:37;7;7;4
34240;PMS7003;20503;50.200;19.508;2022-10-31T23:48:48;10;6;4
34240;PMS7003;20503;50.200;19.508;2022-10-31T23:53:59;6;4;4
34240;PMS7003;20503;50.200;19.508;2022-10-31T23:59:10;7;6;3
